createdAt,value
2023-02-25T00:00:54.874Z,0
2023-02-25T00:05:55.078Z,0
2023-02-25T00:10:55.314Z,0
2023-02-25T00:15:54.498Z,0
2023-02-25T00:20:54.655Z,0
2023-02-25T00:25:54.930Z,0
2023-02-25T00:30:55.529Z,0
2023-02-25T00:35:54.924Z,0
2023-02-25T00:40:55.102Z,0
2023-02-25T00:45:54.410Z,0
2023-02-25T00:50:54.707Z,0
2023-02-25T00:55:54.905Z,0
2023-02-25T01:00:55.330Z,0
2023-02-25T01:05:54.725Z,0
2023-02-25T01:10:54.373Z,0
2023-02-25T01:15:54.688Z,0
2023-02-25T01:20:55.004Z,0
2023-02-25T01:25:55.230Z,0
2023-02-25T01:30:54.800Z,0
2023-02-25T01:35:55.172Z,0
2023-02-25T01:40:54.572Z,0
2023-02-25T01:45:54.871Z,0
2023-02-25T01:50:55.312Z,0
2023-02-25T01:55:54.710Z,0
2023-02-25T02:00:55.459Z,0
2023-02-25T02:05:54.855Z,0
2023-02-25T02:10:55.334Z,0
2023-02-25T02:15:54.645Z,0
2023-02-25T02:20:55.150Z,0
2023-02-25T02:25:54.662Z,0
2023-02-25T02:30:54.911Z,0
2023-02-25T02:35:55.107Z,0
2023-02-25T02:40:55.764Z,0
2023-02-25T02:45:55.164Z,0
2023-02-25T02:50:54.517Z,0
2023-02-25T02:55:54.695Z,0
2023-02-25T03:00:55.509Z,0
2023-02-25T03:05:54.604Z,0
2023-02-25T03:10:55.239Z,0
2023-02-25T03:15:54.440Z,0
2023-02-25T03:20:54.903Z,0
2023-02-25T03:25:55.043Z,0
2023-02-25T03:30:54.733Z,0
2023-02-25T03:35:54.593Z,0
2023-02-25T03:40:55.135Z,0
2023-02-25T03:45:54.670Z,0
2023-02-25T03:50:55.274Z,0
2023-02-25T03:55:54.773Z,0
2023-02-25T04:00:55.039Z,0
2023-02-25T04:05:54.617Z,0
2023-02-25T04:10:55.316Z,0
2023-02-25T04:15:54.566Z,0
2023-02-25T04:20:55.341Z,0
2023-02-25T04:25:54.481Z,0
2023-02-25T04:30:55.101Z,0
2023-02-25T04:35:55.324Z,0
2023-02-25T04:40:54.849Z,0
2023-02-25T04:45:55.044Z,0
2023-02-25T04:50:55.339Z,0
2023-02-25T04:55:55.229Z,0
2023-02-25T05:00:54.468Z,0
2023-02-25T05:05:54.656Z,0
2023-02-25T05:10:54.909Z,0
2023-02-25T05:15:55.156Z,0
2023-02-25T05:20:55.442Z,0
2023-02-25T05:25:54.855Z,0
2023-02-25T05:30:55.385Z,0
2023-02-25T05:35:54.672Z,0
2023-02-25T05:40:54.827Z,0
2023-02-25T05:45:55.055Z,0
2023-02-25T05:50:55.261Z,0
2023-02-25T05:55:54.534Z,0
2023-02-25T06:00:54.789Z,0
2023-02-25T06:05:55.126Z,0
2023-02-25T06:10:55.444Z,0
2023-02-25T06:15:54.555Z,0
2023-02-25T06:20:55.163Z,0
2023-02-25T06:25:55.419Z,0
2023-02-25T06:30:54.696Z,0
2023-02-25T06:35:54.706Z,0
2023-02-25T06:40:54.980Z,0
2023-02-25T06:45:55.350Z,10.6
2023-02-25T06:50:54.680Z,10.6
2023-02-25T06:55:54.926Z,6.6
2023-02-25T07:00:55.272Z,6.6
2023-02-25T07:05:55.350Z,5.4
2023-02-25T07:10:54.676Z,5.4
2023-02-25T07:15:55.092Z,8.5
2023-02-25T07:20:55.488Z,8.5
2023-02-25T07:25:54.665Z,15.5
2023-02-25T07:30:55.253Z,15.5
2023-02-25T07:35:54.539Z,32
2023-02-25T07:40:54.789Z,32
2023-02-25T07:45:55.060Z,46
2023-02-25T07:50:55.197Z,46
2023-02-25T07:55:55.542Z,57.4
2023-02-25T08:00:54.645Z,57.4
2023-02-25T08:05:54.819Z,43.2
2023-02-25T08:10:54.977Z,43.2
2023-02-25T08:15:55.191Z,47.2
2023-02-25T08:20:55.641Z,47.2
2023-02-25T08:25:54.938Z,49
2023-02-25T08:30:55.715Z,49
2023-02-25T08:35:54.866Z,49.6
2023-02-25T08:40:54.773Z,49.6
2023-02-25T08:45:54.914Z,125.5
2023-02-25T08:50:55.008Z,125.5
2023-02-25T08:55:55.177Z,67
2023-02-25T09:00:55.781Z,67
2023-02-25T09:05:55.057Z,97.2
2023-02-25T09:10:54.730Z,97.2
2023-02-25T09:15:55.007Z,161.8
2023-02-25T09:20:55.145Z,161.8
2023-02-25T09:25:55.323Z,127.8
2023-02-25T09:30:54.970Z,127.8
2023-02-25T09:35:55.398Z,112
2023-02-25T09:40:55.469Z,112
2023-02-25T09:45:54.857Z,107.4
2023-02-25T09:50:54.935Z,107.4
2023-02-25T09:55:55.139Z,104.5
2023-02-25T10:00:55.831Z,104.5
2023-02-25T10:05:55.453Z,187
2023-02-25T10:10:54.819Z,187
2023-02-25T10:15:55.083Z,70.4
2023-02-25T10:20:55.322Z,70.4
2023-02-25T10:25:55.519Z,59
2023-02-25T10:30:55.099Z,59
2023-02-25T10:35:55.407Z,73.8
2023-02-25T10:40:54.727Z,73.8
2023-02-25T10:45:54.933Z,117
2023-02-25T10:50:55.555Z,117
2023-02-25T10:55:55.116Z,133.2
2023-02-25T11:00:55.635Z,133.2
2023-02-25T11:05:54.821Z,276
2023-02-25T11:10:55.129Z,276
2023-02-25T11:15:55.371Z,152.2
2023-02-25T11:20:55.680Z,152.2
2023-02-25T11:25:54.889Z,263.6
2023-02-25T11:30:55.406Z,263.6
2023-02-25T11:35:54.648Z,180.5
2023-02-25T11:40:55.154Z,180.5
2023-02-25T11:45:55.361Z,170.8
2023-02-25T11:50:55.598Z,170.8
2023-02-25T11:55:54.884Z,440.6
2023-02-25T12:00:55.124Z,440.6
2023-02-25T12:05:55.516Z,373
2023-02-25T12:10:54.875Z,373
2023-02-25T12:15:55.310Z,245.8
2023-02-25T12:20:55.652Z,245.8
2023-02-25T12:25:55.003Z,170.2
2023-02-25T12:30:55.534Z,170.2
2023-02-25T12:35:54.802Z,84.2
2023-02-25T12:40:54.983Z,84.2
2023-02-25T12:45:55.270Z,159
2023-02-25T12:50:55.498Z,159
2023-02-25T12:55:55.707Z,133.8
2023-02-25T13:00:54.948Z,133.8
2023-02-25T13:05:55.187Z,220.4
2023-02-25T13:10:55.385Z,220.4
2023-02-25T13:15:55.625Z,131.2
2023-02-25T13:20:54.804Z,131.2
2023-02-25T13:25:55.085Z,107.2
2023-02-25T13:30:55.329Z,107.2
2023-02-25T13:35:55.557Z,217.4
2023-02-25T13:40:55.370Z,217.4
2023-02-25T13:45:55.646Z,244.8
2023-02-25T13:50:54.809Z,244.8
2023-02-25T13:55:55.014Z,83
2023-02-25T14:00:55.382Z,83
2023-02-25T14:05:54.993Z,291
2023-02-25T14:10:55.257Z,291
2023-02-25T14:15:55.746Z,150.2
2023-02-25T14:20:55.030Z,150.2
2023-02-25T14:25:55.325Z,88.5
2023-02-25T14:30:55.833Z,88.5
2023-02-25T14:35:55.184Z,89
2023-02-25T14:40:55.854Z,89
2023-02-25T14:45:55.233Z,206.5
2023-02-25T14:50:55.498Z,206.5
2023-02-25T14:55:55.768Z,113.8
2023-02-25T15:00:55.501Z,113.8
2023-02-25T15:05:55.401Z,22
2023-02-25T15:10:54.945Z,22
2023-02-25T15:15:55.364Z,51.4
2023-02-25T15:20:55.413Z,51.4
2023-02-25T15:25:55.093Z,148.8
2023-02-25T15:30:55.196Z,148.8
2023-02-25T15:35:55.741Z,34
2023-02-25T15:40:55.680Z,34
2023-02-25T15:45:56.218Z,18
2023-02-25T15:50:55.473Z,18
2023-02-25T15:55:55.046Z,23.8
2023-02-25T16:00:55.465Z,23.8
2023-02-25T16:05:55.285Z,17
2023-02-25T16:10:55.499Z,17
2023-02-25T16:15:55.038Z,11.2
2023-02-25T16:20:55.489Z,11.2
2023-02-25T16:25:55.726Z,9
2023-02-25T16:30:55.221Z,9
2023-02-25T16:36:08.169Z,7
2023-02-25T16:40:55.519Z,7
2023-02-25T16:45:55.963Z,2.5
2023-02-25T16:50:55.128Z,2.5
2023-02-25T16:55:55.338Z,0
2023-02-25T17:00:55.681Z,0
2023-02-25T17:05:54.985Z,0
2023-02-25T17:10:55.263Z,0
2023-02-25T17:15:55.559Z,0
2023-02-25T17:20:55.700Z,0
2023-02-25T17:25:54.927Z,0
2023-02-25T17:30:55.505Z,0
2023-02-25T17:35:55.718Z,0
2023-02-25T17:40:56.000Z,0
2023-02-25T17:45:55.552Z,0
2023-02-25T17:50:55.754Z,0
2023-02-25T17:55:55.096Z,0
2023-02-25T18:00:55.231Z,0
2023-02-25T18:05:55.315Z,0
2023-02-25T18:10:55.532Z,0
2023-02-25T18:16:00.218Z,0
2023-02-25T18:20:55.395Z,0
2023-02-25T18:25:55.542Z,0
2023-02-25T18:30:56.021Z,0
2023-02-25T18:35:57.717Z,0
2023-02-25T18:40:55.053Z,0
2023-02-25T18:45:55.268Z,0
2023-02-25T18:50:55.462Z,0
2023-02-25T18:55:55.612Z,0
2023-02-25T19:00:55.875Z,0
2023-02-25T19:05:55.060Z,0
2023-02-25T19:10:55.165Z,0
2023-02-25T19:15:55.316Z,0
2023-02-25T19:20:55.475Z,0
2023-02-25T19:25:55.527Z,0
2023-02-25T19:30:55.138Z,0
2023-02-25T19:35:55.329Z,0
2023-02-25T19:40:55.927Z,0
2023-02-25T19:45:55.125Z,0
2023-02-25T19:50:55.313Z,0
2023-02-25T19:55:55.384Z,0
2023-02-25T20:00:55.626Z,0
2023-02-25T20:05:55.779Z,0
2023-02-25T20:10:55.967Z,0
2023-02-25T20:15:55.196Z,0
2023-02-25T20:20:55.377Z,0
2023-02-25T20:25:55.551Z,0
2023-02-25T20:30:55.809Z,0
2023-02-25T20:35:55.111Z,0
2023-02-25T20:40:56.002Z,0
2023-02-25T20:45:55.445Z,0
2023-02-25T20:50:55.660Z,0
2023-02-25T20:55:56.027Z,0
2023-02-25T21:00:55.377Z,0
2023-02-25T21:05:55.593Z,0
2023-02-25T21:10:55.830Z,0
2023-02-25T21:15:55.702Z,0
2023-02-25T21:20:55.698Z,0
2023-02-25T21:25:55.901Z,0
2023-02-25T21:30:55.187Z,0
2023-02-25T21:35:55.466Z,0
2023-02-25T21:40:55.916Z,0
2023-02-25T21:45:55.596Z,0
2023-02-25T21:50:56.036Z,0
2023-02-25T21:55:55.601Z,0
2023-02-25T22:00:55.268Z,0
2023-02-25T22:05:56.031Z,0
2023-02-25T22:10:55.590Z,0
2023-02-25T22:15:55.312Z,0
2023-02-25T22:45:55.996Z,0
2023-02-25T22:50:55.288Z,0
2023-02-25T22:55:55.482Z,0
2023-02-25T23:00:55.698Z,0
2023-02-25T23:05:55.929Z,0
2023-02-25T23:10:55.204Z,0
2023-02-25T23:15:55.490Z,0
2023-02-25T23:20:55.698Z,0
2023-02-25T23:25:55.986Z,0
2023-02-25T23:30:55.337Z,0
2023-02-25T23:35:55.431Z,0
2023-02-25T23:40:55.835Z,0
2023-02-25T23:45:56.272Z,0
2023-02-25T23:55:56.076Z,0
